X  Sluiten METAR luchtvaart weer gegevens      EHRD Rotterdam The Hague Airport
Temperatuur
21°C Temperatuur
17°C Dauwpunt
78% Vochtigheid



Wind
7 MPH
11 KM/U
3 M/S
6 KTS



300°
WNW
Huidig weer

Geheel bewolkt Geheel bewolkt
Luchtdruk 1014.9 (hPa) - 29.97 (inHg)
Zicht 6 (mijl) - 9.7 (km)
Vliegveld
Vliegveld code EHRD

Locatie : Rotterdam The Hague Airport
Afstand: 23 (mi)

Metar:
EHRD 231125Z AUTO 30006KT 240V010 9999 OVC016 21/17 Q1015 TEMPO 6000 SHRA BKN014 FEW020CB

Tijd: 23-07-2024 13:25 CEST